sensor_id;sensor_type;location;lat;lon;timestamp;P1;durP1;ratioP1;P2;durP2;ratioP2
15516;SDS011;7860;52.030;5.572;2023-02-10T00:03:14;55.73;;;31.56;;
15516;SDS011;7860;52.030;5.572;2023-02-10T00:03:14;50.50;;;30.28;;
15516;SDS011;7860;52.030;5.572;2023-02-10T00:03:14;52.43;;;30.43;;
15516;SDS011;7860;52.030;5.572;2023-02-10T00:03:17;50.88;;;29.62;;
15516;SDS011;7860;52.030;5.572;2023-02-10T00:04:18;48.59;;;30.80;;
15516;SDS011;7860;52.030;5.572;2023-02-10T00:05:19;52.26;;;30.29;;
15516;SDS011;7860;52.030;5.572;2023-02-10T00:06:20;53.33;;;29.59;;
15516;SDS011;7860;52.030;5.572;2023-02-10T00:07:20;51.14;;;28.11;;
15516;SDS011;7860;52.030;5.572;2023-02-10T00:08:21;50.42;;;28.30;;
15516;SDS011;7860;52.030;5.572;2023-02-10T00:09:21;47.28;;;28.03;;
15516;SDS011;7860;52.030;5.572;2023-02-10T00:10:22;49.96;;;28.19;;
15516;SDS011;7860;52.030;5.572;2023-02-10T00:11:22;43.83;;;27.51;;
15516;SDS011;7860;52.030;5.572;2023-02-10T00:12:22;48.31;;;27.07;;
15516;SDS011;7860;52.030;5.572;2023-02-10T00:13:23;41.83;;;25.53;;
15516;SDS011;7860;52.030;5.572;2023-02-10T00:14:25;47.68;;;26.93;;
15516;SDS011;7860;52.030;5.572;2023-02-10T00:15:24;41.72;;;23.59;;
15516;SDS011;7860;52.030;5.572;2023-02-10T00:16:25;45.99;;;25.33;;
15516;SDS011;7860;52.030;5.572;2023-02-10T00:17:26;42.23;;;23.84;;
15516;SDS011;7860;52.030;5.572;2023-02-10T00:18:27;40.75;;;23.46;;
15516;SDS011;7860;52.030;5.572;2023-02-10T00:19:28;43.59;;;23.66;;
15516;SDS011;7860;52.030;5.572;2023-02-10T00:20:28;45.63;;;24.53;;
15516;SDS011;7860;52.030;5.572;2023-02-10T00:21:29;45.47;;;24.56;;
15516;SDS011;7860;52.030;5.572;2023-02-10T00:22:29;40.91;;;24.46;;
15516;SDS011;7860;52.030;5.572;2023-02-10T00:23:30;47.19;;;24.97;;
15516;SDS011;7860;52.030;5.572;2023-02-10T00:24:30;41.82;;;24.92;;
15516;SDS011;7860;52.030;5.572;2023-02-10T00:25:31;43.24;;;23.69;;
15516;SDS011;7860;52.030;5.572;2023-02-10T00:26:32;40.84;;;23.78;;
15516;SDS011;7860;52.030;5.572;2023-02-10T00:27:32;41.07;;;23.91;;
15516;SDS011;7860;52.030;5.572;2023-02-10T00:28:34;39.36;;;23.44;;
15516;SDS011;7860;52.030;5.572;2023-02-10T00:29:34;39.55;;;22.66;;
15516;SDS011;7860;52.030;5.572;2023-02-10T00:30:36;44.44;;;23.43;;
15516;SDS011;7860;52.030;5.572;2023-02-10T00:31:36;43.86;;;23.42;;
15516;SDS011;7860;52.030;5.572;2023-02-10T00:32:36;38.67;;;24.25;;
15516;SDS011;7860;52.030;5.572;2023-02-10T00:33:37;40.22;;;22.67;;
15516;SDS011;7860;52.030;5.572;2023-02-10T00:34:38;43.58;;;24.79;;
15516;SDS011;7860;52.030;5.572;2023-02-10T00:35:39;42.64;;;24.01;;
15516;SDS011;7860;52.030;5.572;2023-02-10T00:36:40;38.35;;;23.01;;
15516;SDS011;7860;52.030;5.572;2023-02-10T00:37:40;39.22;;;22.92;;
15516;SDS011;7860;52.030;5.572;2023-02-10T00:38:40;40.30;;;23.07;;
15516;SDS011;7860;52.030;5.572;2023-02-10T00:39:41;39.81;;;23.63;;
15516;SDS011;7860;52.030;5.572;2023-02-10T00:40:42;38.41;;;22.72;;
15516;SDS011;7860;52.030;5.572;2023-02-10T00:41:43;45.97;;;23.73;;
15516;SDS011;7860;52.030;5.572;2023-02-10T00:42:44;42.41;;;23.40;;
15516;SDS011;7860;52.030;5.572;2023-02-10T00:43:44;38.87;;;23.05;;
15516;SDS011;7860;52.030;5.572;2023-02-10T00:44:44;35.98;;;22.64;;
15516;SDS011;7860;52.030;5.572;2023-02-10T00:45:45;39.78;;;22.52;;
15516;SDS011;7860;52.030;5.572;2023-02-10T00:46:45;41.25;;;22.44;;
15516;SDS011;7860;52.030;5.572;2023-02-10T00:47:46;36.67;;;22.54;;
15516;SDS011;7860;52.030;5.572;2023-02-10T00:48:48;38.85;;;21.86;;
15516;SDS011;7860;52.030;5.572;2023-02-10T00:49:47;36.65;;;21.27;;
15516;SDS011;7860;52.030;5.572;2023-02-10T00:50:48;36.60;;;21.16;;
15516;SDS011;7860;52.030;5.572;2023-02-10T00:51:49;36.65;;;20.17;;
15516;SDS011;7860;52.030;5.572;2023-02-10T00:52:50;34.35;;;20.24;;
15516;SDS011;7860;52.030;5.572;2023-02-10T00:53:50;33.37;;;19.69;;
15516;SDS011;7860;52.030;5.572;2023-02-10T00:54:51;36.18;;;20.54;;
15516;SDS011;7860;52.030;5.572;2023-02-10T00:55:51;34.54;;;20.29;;
15516;SDS011;7860;52.030;5.572;2023-02-10T00:56:52;36.69;;;21.42;;
15516;SDS011;7860;52.030;5.572;2023-02-10T00:57:53;36.12;;;20.79;;
15516;SDS011;7860;52.030;5.572;2023-02-10T00:58:54;35.51;;;21.06;;
15516;SDS011;7860;52.030;5.572;2023-02-10T00:59:55;35.51;;;21.88;;
15516;SDS011;7860;52.030;5.572;2023-02-10T01:00:56;33.19;;;20.98;;
15516;SDS011;7860;52.030;5.572;2023-02-10T01:01:56;36.03;;;21.00;;
15516;SDS011;7860;52.030;5.572;2023-02-10T01:02:56;36.20;;;21.88;;
15516;SDS011;7860;52.030;5.572;2023-02-10T01:03:56;37.25;;;21.69;;
15516;SDS011;7860;52.030;5.572;2023-02-10T01:04:57;37.57;;;22.11;;
15516;SDS011;7860;52.030;5.572;2023-02-10T01:05:57;37.36;;;21.69;;
15516;SDS011;7860;52.030;5.572;2023-02-10T01:06:58;33.35;;;21.32;;
15516;SDS011;7860;52.030;5.572;2023-02-10T01:07:58;35.71;;;20.95;;
15516;SDS011;7860;52.030;5.572;2023-02-10T01:08:59;37.01;;;20.71;;
15516;SDS011;7860;52.030;5.572;2023-02-10T01:09:59;36.92;;;20.79;;
15516;SDS011;7860;52.030;5.572;2023-02-10T01:11:00;38.59;;;22.57;;
15516;SDS011;7860;52.030;5.572;2023-02-10T01:12:01;33.35;;;21.03;;
15516;SDS011;7860;52.030;5.572;2023-02-10T01:13:01;36.53;;;20.99;;
15516;SDS011;7860;52.030;5.572;2023-02-10T01:14:02;31.28;;;20.47;;
15516;SDS011;7860;52.030;5.572;2023-02-10T01:15:03;33.63;;;21.26;;
15516;SDS011;7860;52.030;5.572;2023-02-10T01:16:04;34.56;;;21.49;;
15516;SDS011;7860;52.030;5.572;2023-02-10T01:17:04;37.48;;;25.12;;
15516;SDS011;7860;52.030;5.572;2023-02-10T01:18:05;36.40;;;23.89;;
15516;SDS011;7860;52.030;5.572;2023-02-10T01:19:05;37.95;;;25.66;;
15516;SDS011;7860;52.030;5.572;2023-02-10T01:20:07;35.86;;;24.68;;
15516;SDS011;7860;52.030;5.572;2023-02-10T01:21:08;35.61;;;24.33;;
15516;SDS011;7860;52.030;5.572;2023-02-10T01:22:07;38.83;;;25.87;;
15516;SDS011;7860;52.030;5.572;2023-02-10T01:23:09;35.38;;;24.27;;
15516;SDS011;7860;52.030;5.572;2023-02-10T01:24:09;35.13;;;24.95;;
15516;SDS011;7860;52.030;5.572;2023-02-10T01:25:09;38.20;;;26.77;;
15516;SDS011;7860;52.030;5.572;2023-02-10T01:26:10;39.19;;;25.80;;
15516;SDS011;7860;52.030;5.572;2023-02-10T01:27:10;37.19;;;26.84;;
15516;SDS011;7860;52.030;5.572;2023-02-10T01:28:11;35.69;;;26.26;;
15516;SDS011;7860;52.030;5.572;2023-02-10T01:29:11;40.32;;;26.25;;
15516;SDS011;7860;52.030;5.572;2023-02-10T01:30:12;34.04;;;24.38;;
15516;SDS011;7860;52.030;5.572;2023-02-10T01:31:12;37.47;;;26.66;;
15516;SDS011;7860;52.030;5.572;2023-02-10T01:32:13;35.40;;;25.91;;
15516;SDS011;7860;52.030;5.572;2023-02-10T01:33:14;35.48;;;24.34;;
15516;SDS011;7860;52.030;5.572;2023-02-10T01:34:14;39.17;;;27.46;;
15516;SDS011;7860;52.030;5.572;2023-02-10T01:35:15;38.03;;;27.14;;
15516;SDS011;7860;52.030;5.572;2023-02-10T01:36:16;39.06;;;26.03;;
15516;SDS011;7860;52.030;5.572;2023-02-10T01:37:16;39.06;;;26.23;;
15516;SDS011;7860;52.030;5.572;2023-02-10T01:38:17;36.54;;;25.63;;
15516;SDS011;7860;52.030;5.572;2023-02-10T01:39:17;38.46;;;27.11;;
15516;SDS011;7860;52.030;5.572;2023-02-10T01:40:18;41.18;;;27.72;;
15516;SDS011;7860;52.030;5.572;2023-02-10T01:41:20;40.52;;;27.57;;
15516;SDS011;7860;52.030;5.572;2023-02-10T01:42:19;38.00;;;27.18;;
15516;SDS011;7860;52.030;5.572;2023-02-10T01:43:20;42.15;;;27.90;;
15516;SDS011;7860;52.030;5.572;2023-02-10T01:45:22;37.50;;;25.27;;
15516;SDS011;7860;52.030;5.572;2023-02-10T01:46:21;38.11;;;25.33;;
15516;SDS011;7860;52.030;5.572;2023-02-10T01:47:22;37.02;;;25.53;;
15516;SDS011;7860;52.030;5.572;2023-02-10T01:48:23;35.36;;;24.74;;
15516;SDS011;7860;52.030;5.572;2023-02-10T01:49:25;43.35;;;27.73;;
15516;SDS011;7860;52.030;5.572;2023-02-10T01:50:26;39.77;;;26.70;;
15516;SDS011;7860;52.030;5.572;2023-02-10T01:51:25;39.73;;;26.28;;
15516;SDS011;7860;52.030;5.572;2023-02-10T01:52:25;34.13;;;24.29;;
15516;SDS011;7860;52.030;5.572;2023-02-10T01:53:25;42.36;;;26.20;;
15516;SDS011;7860;52.030;5.572;2023-02-10T01:54:26;42.84;;;25.24;;
15516;SDS011;7860;52.030;5.572;2023-02-10T01:55:28;37.07;;;25.03;;
15516;SDS011;7860;52.030;5.572;2023-02-10T01:56:27;40.47;;;26.08;;
15516;SDS011;7860;52.030;5.572;2023-02-10T01:57:28;38.71;;;26.79;;
15516;SDS011;7860;52.030;5.572;2023-02-10T01:58:30;36.50;;;25.56;;
15516;SDS011;7860;52.030;5.572;2023-02-10T01:59:30;37.46;;;26.92;;
15516;SDS011;7860;52.030;5.572;2023-02-10T02:00:31;39.98;;;27.40;;
15516;SDS011;7860;52.030;5.572;2023-02-10T02:01:32;37.90;;;26.81;;
15516;SDS011;7860;52.030;5.572;2023-02-10T02:02:32;35.87;;;25.64;;
15516;SDS011;7860;52.030;5.572;2023-02-10T02:03:32;38.90;;;26.45;;
15516;SDS011;7860;52.030;5.572;2023-02-10T02:04:34;36.75;;;25.57;;
15516;SDS011;7860;52.030;5.572;2023-02-10T02:05:34;38.64;;;26.15;;
15516;SDS011;7860;52.030;5.572;2023-02-10T02:06:34;37.60;;;25.49;;
15516;SDS011;7860;52.030;5.572;2023-02-10T02:07:35;36.75;;;26.65;;
15516;SDS011;7860;52.030;5.572;2023-02-10T02:08:35;37.26;;;26.36;;
15516;SDS011;7860;52.030;5.572;2023-02-10T02:09:36;35.54;;;25.74;;
15516;SDS011;7860;52.030;5.572;2023-02-10T02:10:38;36.54;;;26.15;;
15516;SDS011;7860;52.030;5.572;2023-02-10T02:11:38;37.33;;;26.77;;
15516;SDS011;7860;52.030;5.572;2023-02-10T02:12:39;35.73;;;26.35;;
15516;SDS011;7860;52.030;5.572;2023-02-10T02:13:48;37.58;;;27.60;;
15516;SDS011;7860;52.030;5.572;2023-02-10T02:14:40;41.17;;;28.41;;
15516;SDS011;7860;52.030;5.572;2023-02-10T02:15:40;37.37;;;27.02;;
15516;SDS011;7860;52.030;5.572;2023-02-10T02:16:43;39.33;;;26.86;;
15516;SDS011;7860;52.030;5.572;2023-02-10T02:17:42;41.52;;;27.23;;
15516;SDS011;7860;52.030;5.572;2023-02-10T02:18:43;39.69;;;27.98;;
15516;SDS011;7860;52.030;5.572;2023-02-10T02:20:04;39.32;;;26.46;;
15516;SDS011;7860;52.030;5.572;2023-02-10T02:20:50;38.22;;;27.12;;
15516;SDS011;7860;52.030;5.572;2023-02-10T02:21:48;35.37;;;25.87;;
15516;SDS011;7860;52.030;5.572;2023-02-10T02:22:48;36.92;;;26.82;;
15516;SDS011;7860;52.030;5.572;2023-02-10T02:24:07;41.84;;;28.43;;
15516;SDS011;7860;52.030;5.572;2023-02-10T02:24:54;39.81;;;27.40;;
15516;SDS011;7860;52.030;5.572;2023-02-10T02:25:52;36.25;;;25.67;;
15516;SDS011;7860;52.030;5.572;2023-02-10T02:26:51;35.47;;;26.28;;
15516;SDS011;7860;52.030;5.572;2023-02-10T02:27:52;34.67;;;25.11;;
15516;SDS011;7860;52.030;5.572;2023-02-10T02:28:54;36.58;;;26.96;;
15516;SDS011;7860;52.030;5.572;2023-02-10T02:29:56;35.39;;;25.24;;
15516;SDS011;7860;52.030;5.572;2023-02-10T02:30:55;36.39;;;26.35;;
15516;SDS011;7860;52.030;5.572;2023-02-10T02:31:53;37.16;;;26.17;;
15516;SDS011;7860;52.030;5.572;2023-02-10T02:32:53;36.24;;;26.56;;
15516;SDS011;7860;52.030;5.572;2023-02-10T02:33:53;36.75;;;26.47;;
15516;SDS011;7860;52.030;5.572;2023-02-10T02:34:55;37.59;;;27.54;;
15516;SDS011;7860;52.030;5.572;2023-02-10T02:35:55;42.45;;;27.79;;
15516;SDS011;7860;52.030;5.572;2023-02-10T02:36:55;38.40;;;26.64;;
15516;SDS011;7860;52.030;5.572;2023-02-10T02:37:55;37.60;;;26.87;;
15516;SDS011;7860;52.030;5.572;2023-02-10T02:38:58;38.11;;;27.50;;
15516;SDS011;7860;52.030;5.572;2023-02-10T02:39:57;35.77;;;25.88;;
15516;SDS011;7860;52.030;5.572;2023-02-10T02:40:57;39.32;;;27.71;;
15516;SDS011;7860;52.030;5.572;2023-02-10T02:41:59;39.67;;;27.26;;
15516;SDS011;7860;52.030;5.572;2023-02-10T02:42:59;38.37;;;26.78;;
15516;SDS011;7860;52.030;5.572;2023-02-10T02:43:59;38.31;;;27.56;;
15516;SDS011;7860;52.030;5.572;2023-02-10T02:45:00;41.86;;;28.25;;
15516;SDS011;7860;52.030;5.572;2023-02-10T02:46:01;38.65;;;27.91;;
15516;SDS011;7860;52.030;5.572;2023-02-10T02:47:02;36.53;;;26.51;;
15516;SDS011;7860;52.030;5.572;2023-02-10T02:48:04;44.23;;;28.90;;
15516;SDS011;7860;52.030;5.572;2023-02-10T02:49:03;41.76;;;28.75;;
15516;SDS011;7860;52.030;5.572;2023-02-10T02:50:06;39.73;;;28.73;;
15516;SDS011;7860;52.030;5.572;2023-02-10T02:51:04;37.40;;;27.42;;
15516;SDS011;7860;52.030;5.572;2023-02-10T02:52:05;39.28;;;27.53;;
15516;SDS011;7860;52.030;5.572;2023-02-10T02:53:07;40.96;;;29.35;;
15516;SDS011;7860;52.030;5.572;2023-02-10T02:54:09;38.98;;;28.87;;
15516;SDS011;7860;52.030;5.572;2023-02-10T02:55:07;39.59;;;27.10;;
15516;SDS011;7860;52.030;5.572;2023-02-10T02:56:09;43.05;;;29.88;;
15516;SDS011;7860;52.030;5.572;2023-02-10T02:57:07;36.74;;;26.52;;
15516;SDS011;7860;52.030;5.572;2023-02-10T02:58:10;38.75;;;27.23;;
15516;SDS011;7860;52.030;5.572;2023-02-10T02:59:10;38.91;;;27.24;;
15516;SDS011;7860;52.030;5.572;2023-02-10T03:00:10;40.15;;;28.79;;
15516;SDS011;7860;52.030;5.572;2023-02-10T03:01:11;38.79;;;27.42;;
15516;SDS011;7860;52.030;5.572;2023-02-10T03:02:11;42.65;;;29.31;;
15516;SDS011;7860;52.030;5.572;2023-02-10T03:03:11;40.25;;;27.84;;
15516;SDS011;7860;52.030;5.572;2023-02-10T03:04:12;39.30;;;27.45;;
15516;SDS011;7860;52.030;5.572;2023-02-10T03:05:16;41.38;;;28.86;;
15516;SDS011;7860;52.030;5.572;2023-02-10T03:06:13;42.05;;;29.54;;
15516;SDS011;7860;52.030;5.572;2023-02-10T03:07:13;39.40;;;28.60;;
15516;SDS011;7860;52.030;5.572;2023-02-10T03:08:14;36.92;;;26.36;;
15516;SDS011;7860;52.030;5.572;2023-02-10T03:09:15;36.24;;;26.07;;
15516;SDS011;7860;52.030;5.572;2023-02-10T03:10:16;38.86;;;27.13;;
15516;SDS011;7860;52.030;5.572;2023-02-10T03:11:16;38.11;;;26.11;;
15516;SDS011;7860;52.030;5.572;2023-02-10T03:12:16;38.58;;;27.20;;
15516;SDS011;7860;52.030;5.572;2023-02-10T03:13:17;38.19;;;27.63;;
15516;SDS011;7860;52.030;5.572;2023-02-10T03:14:18;38.35;;;27.42;;
15516;SDS011;7860;52.030;5.572;2023-02-10T03:15:19;38.42;;;27.41;;
15516;SDS011;7860;52.030;5.572;2023-02-10T03:16:19;38.37;;;26.81;;
15516;SDS011;7860;52.030;5.572;2023-02-10T03:17:20;38.31;;;27.02;;
15516;SDS011;7860;52.030;5.572;2023-02-10T03:18:20;41.35;;;28.99;;
15516;SDS011;7860;52.030;5.572;2023-02-10T03:19:21;38.82;;;27.56;;
15516;SDS011;7860;52.030;5.572;2023-02-10T03:20:21;39.76;;;27.56;;
15516;SDS011;7860;52.030;5.572;2023-02-10T03:21:22;43.59;;;28.82;;
15516;SDS011;7860;52.030;5.572;2023-02-10T03:22:23;37.83;;;26.98;;
15516;SDS011;7860;52.030;5.572;2023-02-10T03:23:23;39.24;;;27.69;;
15516;SDS011;7860;52.030;5.572;2023-02-10T03:24:24;37.14;;;27.23;;
15516;SDS011;7860;52.030;5.572;2023-02-10T03:25:25;35.74;;;25.89;;
15516;SDS011;7860;52.030;5.572;2023-02-10T03:26:25;42.07;;;28.40;;
15516;SDS011;7860;52.030;5.572;2023-02-10T03:27:26;39.33;;;27.85;;
15516;SDS011;7860;52.030;5.572;2023-02-10T03:28:26;39.41;;;27.11;;
15516;SDS011;7860;52.030;5.572;2023-02-10T03:29:27;39.62;;;28.26;;
15516;SDS011;7860;52.030;5.572;2023-02-10T03:30:28;37.80;;;26.99;;
15516;SDS011;7860;52.030;5.572;2023-02-10T03:31:29;36.59;;;26.55;;
15516;SDS011;7860;52.030;5.572;2023-02-10T03:32:30;38.16;;;27.11;;
15516;SDS011;7860;52.030;5.572;2023-02-10T03:33:31;38.44;;;27.06;;
15516;SDS011;7860;52.030;5.572;2023-02-10T03:34:31;39.07;;;28.17;;
15516;SDS011;7860;52.030;5.572;2023-02-10T03:35:34;38.53;;;27.64;;
15516;SDS011;7860;52.030;5.572;2023-02-10T03:36:31;41.54;;;29.71;;
15516;SDS011;7860;52.030;5.572;2023-02-10T03:37:32;40.47;;;28.87;;
15516;SDS011;7860;52.030;5.572;2023-02-10T03:38:33;41.51;;;29.45;;
15516;SDS011;7860;52.030;5.572;2023-02-10T03:39:34;41.44;;;30.12;;
15516;SDS011;7860;52.030;5.572;2023-02-10T03:40:35;43.05;;;31.28;;
15516;SDS011;7860;52.030;5.572;2023-02-10T03:41:35;44.44;;;30.52;;
15516;SDS011;7860;52.030;5.572;2023-02-10T03:42:36;41.85;;;29.67;;
15516;SDS011;7860;52.030;5.572;2023-02-10T03:43:36;41.16;;;29.25;;
15516;SDS011;7860;52.030;5.572;2023-02-10T03:44:37;41.23;;;28.94;;
15516;SDS011;7860;52.030;5.572;2023-02-10T03:45:38;40.22;;;28.71;;
15516;SDS011;7860;52.030;5.572;2023-02-10T03:46:38;40.88;;;29.28;;
15516;SDS011;7860;52.030;5.572;2023-02-10T03:47:38;41.04;;;29.72;;
15516;SDS011;7860;52.030;5.572;2023-02-10T03:48:38;40.71;;;28.29;;
15516;SDS011;7860;52.030;5.572;2023-02-10T03:49:39;41.19;;;29.54;;
15516;SDS011;7860;52.030;5.572;2023-02-10T03:50:39;40.57;;;30.31;;
15516;SDS011;7860;52.030;5.572;2023-02-10T03:51:40;39.56;;;28.67;;
15516;SDS011;7860;52.030;5.572;2023-02-10T03:52:41;38.08;;;27.91;;
15516;SDS011;7860;52.030;5.572;2023-02-10T03:53:42;42.07;;;29.54;;
15516;SDS011;7860;52.030;5.572;2023-02-10T03:54:42;38.25;;;27.45;;
15516;SDS011;7860;52.030;5.572;2023-02-10T03:55:43;40.86;;;28.69;;
15516;SDS011;7860;52.030;5.572;2023-02-10T03:56:44;39.34;;;28.47;;
15516;SDS011;7860;52.030;5.572;2023-02-10T03:57:45;43.92;;;30.04;;
15516;SDS011;7860;52.030;5.572;2023-02-10T03:58:45;40.49;;;28.87;;
15516;SDS011;7860;52.030;5.572;2023-02-10T03:59:45;41.56;;;30.54;;
15516;SDS011;7860;52.030;5.572;2023-02-10T04:00:46;38.59;;;27.23;;
15516;SDS011;7860;52.030;5.572;2023-02-10T04:01:47;43.76;;;30.25;;
15516;SDS011;7860;52.030;5.572;2023-02-10T04:02:48;39.96;;;28.77;;
15516;SDS011;7860;52.030;5.572;2023-02-10T04:03:49;44.18;;;30.54;;
15516;SDS011;7860;52.030;5.572;2023-02-10T04:04:50;44.28;;;30.33;;
15516;SDS011;7860;52.030;5.572;2023-02-10T04:05:50;42.39;;;28.51;;
15516;SDS011;7860;52.030;5.572;2023-02-10T04:06:51;36.27;;;26.72;;
15516;SDS011;7860;52.030;5.572;2023-02-10T04:07:52;43.63;;;29.10;;
15516;SDS011;7860;52.030;5.572;2023-02-10T04:08:52;39.86;;;29.14;;
15516;SDS011;7860;52.030;5.572;2023-02-10T04:09:52;42.06;;;29.47;;
15516;SDS011;7860;52.030;5.572;2023-02-10T04:10:53;44.05;;;29.69;;
15516;SDS011;7860;52.030;5.572;2023-02-10T04:11:54;42.85;;;29.39;;
15516;SDS011;7860;52.030;5.572;2023-02-10T04:12:55;41.33;;;28.53;;
15516;SDS011;7860;52.030;5.572;2023-02-10T04:13:56;40.20;;;28.13;;
15516;SDS011;7860;52.030;5.572;2023-02-10T04:14:57;41.34;;;29.12;;
15516;SDS011;7860;52.030;5.572;2023-02-10T04:15:59;39.08;;;27.65;;
15516;SDS011;7860;52.030;5.572;2023-02-10T04:16:59;37.92;;;26.16;;
15516;SDS011;7860;52.030;5.572;2023-02-10T04:18:00;37.14;;;26.80;;
15516;SDS011;7860;52.030;5.572;2023-02-10T04:19:00;42.32;;;29.25;;
15516;SDS011;7860;52.030;5.572;2023-02-10T04:20:01;41.54;;;28.43;;
15516;SDS011;7860;52.030;5.572;2023-02-10T04:21:02;40.42;;;29.28;;
15516;SDS011;7860;52.030;5.572;2023-02-10T04:22:02;37.99;;;26.60;;
15516;SDS011;7860;52.030;5.572;2023-02-10T04:23:03;43.26;;;29.10;;
15516;SDS011;7860;52.030;5.572;2023-02-10T04:24:04;43.89;;;29.87;;
15516;SDS011;7860;52.030;5.572;2023-02-10T04:25:05;43.33;;;30.20;;
15516;SDS011;7860;52.030;5.572;2023-02-10T04:26:05;43.69;;;30.49;;
15516;SDS011;7860;52.030;5.572;2023-02-10T04:27:06;39.85;;;29.36;;
15516;SDS011;7860;52.030;5.572;2023-02-10T04:28:06;44.53;;;29.98;;
15516;SDS011;7860;52.030;5.572;2023-02-10T04:29:07;43.73;;;29.69;;
15516;SDS011;7860;52.030;5.572;2023-02-10T04:30:08;42.35;;;27.94;;
15516;SDS011;7860;52.030;5.572;2023-02-10T04:31:08;43.33;;;29.61;;
15516;SDS011;7860;52.030;5.572;2023-02-10T04:32:08;42.99;;;30.40;;
15516;SDS011;7860;52.030;5.572;2023-02-10T04:33:09;46.53;;;30.26;;
15516;SDS011;7860;52.030;5.572;2023-02-10T04:34:09;44.47;;;30.19;;
15516;SDS011;7860;52.030;5.572;2023-02-10T04:35:09;43.55;;;29.54;;
15516;SDS011;7860;52.030;5.572;2023-02-10T04:36:09;43.76;;;29.97;;
15516;SDS011;7860;52.030;5.572;2023-02-10T04:37:10;46.96;;;31.26;;
15516;SDS011;7860;52.030;5.572;2023-02-10T04:38:10;44.98;;;29.66;;
15516;SDS011;7860;52.030;5.572;2023-02-10T04:39:11;46.23;;;30.42;;
15516;SDS011;7860;52.030;5.572;2023-02-10T04:40:11;47.82;;;31.18;;
15516;SDS011;7860;52.030;5.572;2023-02-10T04:41:12;45.79;;;29.73;;
15516;SDS011;7860;52.030;5.572;2023-02-10T04:42:13;42.43;;;28.75;;
15516;SDS011;7860;52.030;5.572;2023-02-10T04:43:14;44.37;;;29.69;;
15516;SDS011;7860;52.030;5.572;2023-02-10T04:44:15;48.91;;;31.38;;
15516;SDS011;7860;52.030;5.572;2023-02-10T04:45:15;47.11;;;32.06;;
15516;SDS011;7860;52.030;5.572;2023-02-10T04:46:15;50.43;;;32.36;;
15516;SDS011;7860;52.030;5.572;2023-02-10T04:47:16;53.10;;;33.36;;
15516;SDS011;7860;52.030;5.572;2023-02-10T04:48:16;54.20;;;32.87;;
15516;SDS011;7860;52.030;5.572;2023-02-10T04:49:17;53.72;;;33.43;;
15516;SDS011;7860;52.030;5.572;2023-02-10T04:50:18;48.69;;;31.99;;
15516;SDS011;7860;52.030;5.572;2023-02-10T04:51:18;47.36;;;31.34;;
15516;SDS011;7860;52.030;5.572;2023-02-10T04:52:19;47.02;;;30.57;;
15516;SDS011;7860;52.030;5.572;2023-02-10T04:53:19;47.99;;;31.10;;
15516;SDS011;7860;52.030;5.572;2023-02-10T04:54:20;48.24;;;30.38;;
15516;SDS011;7860;52.030;5.572;2023-02-10T04:55:21;51.14;;;32.57;;
15516;SDS011;7860;52.030;5.572;2023-02-10T04:56:22;55.32;;;34.07;;
15516;SDS011;7860;52.030;5.572;2023-02-10T04:57:23;56.66;;;32.81;;
15516;SDS011;7860;52.030;5.572;2023-02-10T04:58:23;53.78;;;33.38;;
15516;SDS011;7860;52.030;5.572;2023-02-10T04:59:23;49.99;;;31.42;;
15516;SDS011;7860;52.030;5.572;2023-02-10T05:00:24;50.28;;;31.47;;
15516;SDS011;7860;52.030;5.572;2023-02-10T05:01:25;52.15;;;32.98;;
15516;SDS011;7860;52.030;5.572;2023-02-10T05:02:25;55.74;;;33.96;;
15516;SDS011;7860;52.030;5.572;2023-02-10T05:03:26;61.54;;;36.10;;
15516;SDS011;7860;52.030;5.572;2023-02-10T05:04:27;55.77;;;33.98;;
15516;SDS011;7860;52.030;5.572;2023-02-10T05:05:27;56.01;;;33.97;;
15516;SDS011;7860;52.030;5.572;2023-02-10T05:06:28;55.23;;;33.77;;
15516;SDS011;7860;52.030;5.572;2023-02-10T05:07:29;64.04;;;36.46;;
15516;SDS011;7860;52.030;5.572;2023-02-10T05:08:30;63.65;;;35.89;;
15516;SDS011;7860;52.030;5.572;2023-02-10T05:09:31;51.68;;;31.87;;
15516;SDS011;7860;52.030;5.572;2023-02-10T05:10:31;58.69;;;34.33;;
15516;SDS011;7860;52.030;5.572;2023-02-10T05:11:32;58.40;;;34.41;;
15516;SDS011;7860;52.030;5.572;2023-02-10T05:12:31;57.14;;;33.79;;
15516;SDS011;7860;52.030;5.572;2023-02-10T05:13:32;55.96;;;34.00;;
15516;SDS011;7860;52.030;5.572;2023-02-10T05:14:32;58.89;;;33.29;;
15516;SDS011;7860;52.030;5.572;2023-02-10T05:15:33;54.79;;;33.07;;
15516;SDS011;7860;52.030;5.572;2023-02-10T05:16:33;56.81;;;35.72;;
15516;SDS011;7860;52.030;5.572;2023-02-10T05:17:34;50.95;;;32.68;;
15516;SDS011;7860;52.030;5.572;2023-02-10T05:18:35;51.05;;;33.23;;
15516;SDS011;7860;52.030;5.572;2023-02-10T05:19:35;49.51;;;32.02;;
15516;SDS011;7860;52.030;5.572;2023-02-10T05:20:36;51.54;;;34.10;;
15516;SDS011;7860;52.030;5.572;2023-02-10T05:21:37;52.16;;;34.17;;
15516;SDS011;7860;52.030;5.572;2023-02-10T05:22:37;47.35;;;33.23;;
15516;SDS011;7860;52.030;5.572;2023-02-10T05:23:38;52.66;;;33.35;;
15516;SDS011;7860;52.030;5.572;2023-02-10T05:24:38;52.48;;;33.42;;
15516;SDS011;7860;52.030;5.572;2023-02-10T05:25:39;49.99;;;32.12;;
15516;SDS011;7860;52.030;5.572;2023-02-10T05:26:39;49.34;;;32.88;;
15516;SDS011;7860;52.030;5.572;2023-02-10T05:27:40;43.68;;;28.61;;
15516;SDS011;7860;52.030;5.572;2023-02-10T05:28:41;52.07;;;33.73;;
15516;SDS011;7860;52.030;5.572;2023-02-10T05:29:41;49.84;;;32.96;;
15516;SDS011;7860;52.030;5.572;2023-02-10T05:30:42;53.36;;;33.50;;
15516;SDS011;7860;52.030;5.572;2023-02-10T05:31:43;51.13;;;32.23;;
15516;SDS011;7860;52.030;5.572;2023-02-10T05:32:43;53.42;;;34.66;;
15516;SDS011;7860;52.030;5.572;2023-02-10T05:33:44;53.32;;;34.28;;
15516;SDS011;7860;52.030;5.572;2023-02-10T05:34:44;51.88;;;33.60;;
15516;SDS011;7860;52.030;5.572;2023-02-10T05:35:44;50.85;;;32.99;;
15516;SDS011;7860;52.030;5.572;2023-02-10T05:36:45;50.84;;;32.56;;
15516;SDS011;7860;52.030;5.572;2023-02-10T05:37:45;52.54;;;32.54;;
15516;SDS011;7860;52.030;5.572;2023-02-10T05:38:48;49.55;;;30.21;;
15516;SDS011;7860;52.030;5.572;2023-02-10T05:39:46;51.21;;;33.41;;
15516;SDS011;7860;52.030;5.572;2023-02-10T05:40:48;55.50;;;34.15;;
15516;SDS011;7860;52.030;5.572;2023-02-10T05:41:48;50.18;;;32.29;;
15516;SDS011;7860;52.030;5.572;2023-02-10T05:42:49;53.17;;;33.18;;
15516;SDS011;7860;52.030;5.572;2023-02-10T05:43:50;53.51;;;33.58;;
15516;SDS011;7860;52.030;5.572;2023-02-10T05:44:51;57.94;;;35.47;;
15516;SDS011;7860;52.030;5.572;2023-02-10T05:45:51;59.54;;;35.68;;
15516;SDS011;7860;52.030;5.572;2023-02-10T05:46:51;55.54;;;34.88;;
15516;SDS011;7860;52.030;5.572;2023-02-10T05:47:52;52.37;;;33.45;;
15516;SDS011;7860;52.030;5.572;2023-02-10T05:48:52;57.69;;;35.45;;
15516;SDS011;7860;52.030;5.572;2023-02-10T05:49:53;61.19;;;35.08;;
15516;SDS011;7860;52.030;5.572;2023-02-10T05:50:53;62.86;;;36.44;;
15516;SDS011;7860;52.030;5.572;2023-02-10T05:51:54;59.91;;;36.76;;
15516;SDS011;7860;52.030;5.572;2023-02-10T05:52:55;48.12;;;30.64;;
15516;SDS011;7860;52.030;5.572;2023-02-10T05:53:56;61.50;;;35.89;;
15516;SDS011;7860;52.030;5.572;2023-02-10T05:54:57;54.99;;;33.58;;
15516;SDS011;7860;52.030;5.572;2023-02-10T05:55:58;60.42;;;35.60;;
15516;SDS011;7860;52.030;5.572;2023-02-10T05:56:59;60.67;;;35.78;;
15516;SDS011;7860;52.030;5.572;2023-02-10T05:57:59;67.04;;;36.96;;
15516;SDS011;7860;52.030;5.572;2023-02-10T05:59:00;64.37;;;37.54;;
15516;SDS011;7860;52.030;5.572;2023-02-10T06:00:04;68.54;;;38.01;;